Time;durP1;ratioP1;P1;durP2;ratioP2;P2;SDS_P1;SDS_P2;PMS_P1;PMS_P2;Temp;Humidity;BMP_temperature;BMP_pressure;BME280_temperature;BME280_humidity;BME280_pressure;Samples;Min_cycle;Max_cycle;Signal;HPM_P1;HPM_P2
2023/05/15 00:01:31;;;;;;;4.82;4.32;;;;;10.70;95804.00;;;;8250610;28;20207;-65
2023/05/15 00:05:39;;;;;;;6.68;4.75;;;;;10.70;95813.00;;;;8245440;28;20259;-65
2023/05/15 00:09:44;;;;;;;7.85;4.65;;;;;10.70;95801.00;;;;8232646;28;20676;-65
2023/05/15 00:13:50;;;;;;;9.77;4.47;;;;;10.70;95798.00;;;;8252722;28;20249;-64
2023/05/15 00:17:55;;;;;;;7.95;4.40;;;;;10.70;95802.00;;;;8245988;28;20210;-64
2023/05/15 00:22:00;;;;;;;7.32;4.85;;;;;10.70;95798.00;;;;8240270;28;20225;-65
2023/05/15 00:26:06;;;;;;;4.57;3.83;;;;;10.80;95799.00;;;;8242216;28;20278;-65
2023/05/15 00:30:10;;;;;;;5.75;4.38;;;;;10.80;95801.00;;;;8245851;28;20261;-65
2023/05/15 00:34:13;;;;;;;4.38;4.00;;;;;10.80;95793.00;;;;8249929;28;20251;-65
2023/05/15 00:38:21;;;;;;;6.00;3.80;;;;;10.90;95793.00;;;;8243205;28;20245;-65
2023/05/15 00:42:28;;;;;;;5.15;3.60;;;;;11.00;95792.00;;;;8243822;28;20290;-65
2023/05/15 00:46:32;;;;;;;4.43;4.03;;;;;11.00;95793.00;;;;8239814;28;20218;-65
2023/05/15 00:50:40;;;;;;;5.57;3.85;;;;;11.10;95794.00;;;;8247853;28;20203;-65
2023/05/15 00:54:48;;;;;;;5.82;3.70;;;;;11.10;95779.00;;;;8247178;28;20287;-65
2023/05/15 00:58:58;;;;;;;4.55;3.75;;;;;11.10;95781.00;;;;8251759;28;20564;-64
2023/05/15 01:03:08;;;;;;;4.20;3.80;;;;;11.10;95791.00;;;;8251455;28;20198;-65
2023/05/15 01:07:11;;;;;;;3.80;3.50;;;;;11.10;95788.00;;;;8242510;28;20238;-65
2023/05/15 01:11:17;;;;;;;3.85;3.55;;;;;11.10;95791.00;;;;8241893;28;20210;-65
2023/05/15 01:15:20;;;;;;;5.78;3.63;;;;;11.20;95792.00;;;;8252674;28;20209;-66
2023/05/15 01:19:34;;;;;;;3.70;3.40;;;;;11.20;95794.00;;;;8246621;28;20209;-64
2023/05/15 01:23:48;;;;;;;4.20;3.80;;;;;11.20;95783.00;;;;8245812;28;20732;-65
2023/05/15 01:27:56;;;;;;;4.03;3.63;;;;;11.20;95778.00;;;;8246961;28;20229;-65
2023/05/15 01:32:04;;;;;;;3.83;3.50;;;;;11.20;95775.00;;;;8245895;28;20262;-65
2023/05/15 01:36:13;;;;;;;4.47;3.63;;;;;11.20;95772.00;;;;8247331;28;20238;-65
2023/05/15 01:40:23;;;;;;;3.38;3.08;;;;;11.10;95768.00;;;;8240138;28;20204;-65
2023/05/15 01:44:29;;;;;;;3.70;3.40;;;;;11.20;95777.00;;;;8240534;28;20231;-65
2023/05/15 01:48:35;;;;;;;5.30;3.75;;;;;11.20;95770.00;;;;8244003;28;20207;-66
2023/05/15 01:52:43;;;;;;;6.55;3.58;;;;;11.20;95773.00;;;;8249051;28;20207;-65
2023/05/15 01:56:46;;;;;;;3.67;3.05;;;;;11.20;95775.00;;;;8246004;28;20201;-65
2023/05/15 02:00:53;;;;;;;4.07;3.08;;;;;11.30;95780.00;;;;8238784;28;20318;-65
2023/05/15 02:04:59;;;;;;;3.10;2.90;;;;;11.30;95768.00;;;;8248367;28;20742;-64
2023/05/15 02:09:03;;;;;;;4.00;3.58;;;;;11.30;95771.00;;;;8246394;28;20197;-64
2023/05/15 02:13:10;;;;;;;4.20;3.80;;;;;11.30;95775.00;;;;8247067;28;20260;-65
2023/05/15 02:17:15;;;;;;;10.90;3.88;;;;;11.30;95776.00;;;;8247685;28;20596;-64
2023/05/15 02:21:18;;;;;;;4.43;4.03;;;;;11.20;95769.00;;;;8248091;28;20260;-65
2023/05/15 02:25:34;;;;;;;4.75;4.07;;;;;11.20;95770.00;;;;8247435;28;20287;-63
2023/05/15 02:29:51;;;;;;;9.82;4.70;;;;;11.20;95767.00;;;;8238451;28;20202;-63
2023/05/15 02:34:07;;;;;;;5.57;3.75;;;;;11.20;95766.00;;;;8240688;28;20204;-63
2023/05/15 02:38:23;;;;;;;5.95;4.10;;;;;11.10;95755.00;;;;8238617;28;20251;-62
2023/05/15 02:42:29;;;;;;;4.63;3.72;;;;;11.10;95752.00;;;;8242951;28;20207;-62
2023/05/15 02:46:37;;;;;;;3.95;3.58;;;;;11.10;95752.00;;;;8240290;28;20258;-62
2023/05/15 02:50:45;;;;;;;4.20;3.80;;;;;11.00;95755.00;;;;8234904;28;20207;-62
2023/05/15 02:54:49;;;;;;;3.95;3.55;;;;;11.00;95754.00;;;;8234847;28;20363;-62
2023/05/15 02:58:55;;;;;;;3.50;3.20;;;;;11.00;95754.00;;;;8241515;28;20245;-62
2023/05/15 03:03:01;;;;;;;4.43;4.03;;;;;11.10;95757.00;;;;8286283;22;20231;-61
2023/05/15 03:07:07;;;;;;;6.90;4.85;;;;;11.00;95751.00;;;;8286665;28;20233;-60
2023/05/15 03:11:12;;;;;;;10.70;4.60;;;;;11.00;95746.00;;;;8280972;28;20202;-60
2023/05/15 03:15:20;;;;;;;4.97;4.32;;;;;11.00;95746.00;;;;8274016;28;20217;-60
2023/05/15 03:19:23;;;;;;;8.73;5.00;;;;;11.00;95750.00;;;;8280941;28;20248;-61
2023/05/15 03:23:27;;;;;;;6.45;4.90;;;;;11.00;95752.00;;;;8283181;28;20211;-61
2023/05/15 03:27:32;;;;;;;5.80;4.40;;;;;11.00;95747.00;;;;8278246;28;20226;-61
2023/05/15 03:31:39;;;;;;;5.03;4.38;;;;;11.00;95741.00;;;;8281082;28;20229;-61
2023/05/15 03:35:45;;;;;;;5.05;4.40;;;;;11.00;95741.00;;;;8283569;28;20207;-60
2023/05/15 03:39:50;;;;;;;7.55;4.90;;;;;11.10;95737.00;;;;8281751;28;20196;-60
2023/05/15 03:43:53;;;;;;;6.55;4.97;;;;;11.10;95745.00;;;;8279148;28;20703;-60
2023/05/15 03:47:57;;;;;;;5.80;4.65;;;;;11.10;95736.00;;;;8282068;28;20256;-60
2023/05/15 03:52:09;;;;;;;5.93;4.95;;;;;11.10;95736.00;;;;8286814;28;20202;-61
2023/05/15 03:56:18;;;;;;;7.25;5.30;;;;;11.10;95731.00;;;;8278764;28;20930;-59
2023/05/15 04:00:28;;;;;;;7.68;4.93;;;;;11.10;95730.00;;;;8283364;28;20202;-61
2023/05/15 04:04:41;;;;;;;7.03;5.18;;;;;11.00;95734.00;;;;8285913;28;20234;-60
2023/05/15 04:08:44;;;;;;;9.90;5.85;;;;;11.00;95738.00;;;;8286811;28;20583;-60
2023/05/15 04:12:48;;;;;;;7.95;5.40;;;;;11.10;95729.00;;;;8286431;28;20867;-60
2023/05/15 04:16:55;;;;;;;11.00;6.20;;;;;11.10;95731.00;;;;8277153;28;20619;-60
2023/05/15 04:20:58;;;;;;;10.85;6.05;;;;;11.00;95729.00;;;;8274994;28;20766;-61
2023/05/15 04:25:02;;;;;;;9.25;6.05;;;;;11.00;95727.00;;;;8270496;28;20200;-60
2023/05/15 04:29:06;;;;;;;11.02;6.38;;;;;11.00;95718.00;;;;8273778;28;20281;-60
2023/05/15 04:33:11;;;;;;;9.05;6.03;;;;;11.10;95722.00;;;;8265852;28;20258;-60
2023/05/15 04:37:15;;;;;;;11.13;6.47;;;;;11.20;95720.00;;;;8279485;28;20208;-60
2023/05/15 04:41:18;;;;;;;10.77;5.93;;;;;11.20;95727.00;;;;8277405;28;20297;-60
2023/05/15 04:45:27;;;;;;;9.43;6.00;;;;;11.20;95723.00;;;;8280712;28;20653;-60
2023/05/15 04:49:30;;;;;;;8.63;5.80;;;;;11.20;95727.00;;;;8277986;28;20205;-60
2023/05/15 04:53:33;;;;;;;9.02;5.82;;;;;11.20;95720.00;;;;8274443;28;20256;-61
2023/05/15 04:57:38;;;;;;;10.32;6.32;;;;;11.20;95726.00;;;;8282676;28;20547;-60
2023/05/15 05:01:45;;;;;;;10.93;6.07;;;;;11.30;95737.00;;;;8284822;28;20205;-61
2023/05/15 05:05:50;;;;;;;10.38;6.10;;;;;11.30;95732.00;;;;8279489;28;20234;-60
2023/05/15 05:09:55;;;;;;;9.32;6.07;;;;;11.40;95731.00;;;;8283687;28;20202;-60
2023/05/15 05:13:58;;;;;;;11.10;5.78;;;;;11.40;95731.00;;;;8282696;28;20232;-61
2023/05/15 05:18:05;;;;;;;10.82;5.97;;;;;11.40;95740.00;;;;8276677;28;20203;-62
2023/05/15 05:22:11;;;;;;;8.60;5.72;;;;;11.30;95731.00;;;;8277665;28;20212;-60
2023/05/15 05:26:14;;;;;;;11.35;6.60;;;;;11.30;95732.00;;;;8273162;28;20229;-60
2023/05/15 05:30:23;;;;;;;12.52;6.90;;;;;11.40;95737.00;;;;8269626;28;20208;-60
2023/05/15 05:34:30;;;;;;;11.13;7.00;;;;;11.40;95735.00;;;;8277096;28;20675;-60
2023/05/15 05:38:34;;;;;;;10.52;5.97;;;;;11.50;95746.00;;;;8280743;28;20205;-60
2023/05/15 05:42:39;;;;;;;6.97;5.53;;;;;11.60;95744.00;;;;8278638;28;20202;-61
2023/05/15 05:46:44;;;;;;;7.30;5.13;;;;;11.60;95736.00;;;;8282786;28;20249;-60
2023/05/15 05:50:51;;;;;;;12.90;5.72;;;;;11.60;95739.00;;;;8272098;28;20323;-60
2023/05/15 05:54:54;;;;;;;10.90;5.22;;;;;11.70;95741.00;;;;8273288;28;20292;-60
2023/05/15 05:59:00;;;;;;;8.55;5.63;;;;;11.80;95742.00;;;;8272548;28;20219;-59
2023/05/15 06:03:04;;;;;;;10.30;5.88;;;;;11.90;95747.00;;;;8273481;28;20232;-60
2023/05/15 06:07:11;;;;;;;10.35;5.50;;;;;11.90;95744.00;;;;8269404;28;20221;-59
2023/05/15 06:11:18;;;;;;;11.45;5.88;;;;;12.00;95740.00;;;;8274336;28;20238;-60
2023/05/15 06:15:21;;;;;;;9.73;5.53;;;;;12.10;95739.00;;;;8277987;28;20279;-60
2023/05/15 06:19:26;;;;;;;8.70;5.97;;;;;12.20;95745.00;;;;8277509;28;20205;-60
2023/05/15 06:23:30;;;;;;;8.25;5.80;;;;;12.40;95744.00;;;;8275465;28;20252;-60
2023/05/15 06:27:35;;;;;;;7.13;5.55;;;;;12.40;95742.00;;;;8294536;28;20238;-60
2023/05/15 06:31:38;;;;;;;8.18;5.55;;;;;12.50;95740.00;;;;8271783;28;20615;-60
2023/05/15 06:35:41;;;;;;;7.43;6.05;;;;;12.60;95749.00;;;;8273108;28;20251;-60
2023/05/15 06:39:49;;;;;;;7.63;5.80;;;;;12.70;95745.00;;;;8279262;28;20252;-62
2023/05/15 06:43:56;;;;;;;9.52;5.85;;;;;12.80;95748.00;;;;8285199;28;20206;-61
2023/05/15 06:48:03;;;;;;;7.93;6.07;;;;;13.00;95752.00;;;;8279452;28;20234;-66
2023/05/15 06:52:07;;;;;;;7.90;5.70;;;;;13.10;95756.00;;;;8283530;28;20218;-63
2023/05/15 06:56:14;;;;;;;9.38;5.70;;;;;13.30;95752.00;;;;8282057;28;20203;-63
2023/05/15 07:00:17;;;;;;;10.00;6.57;;;;;13.40;95754.00;;;;8283394;28;20198;-62
2023/05/15 07:04:23;;;;;;;12.35;6.40;;;;;13.50;95753.00;;;;8279817;28;20711;-63
2023/05/15 07:08:28;;;;;;;8.63;6.63;;;;;13.70;95754.00;;;;8280593;28;20241;-65
2023/05/15 07:12:33;;;;;;;8.48;5.95;;;;;13.90;95750.00;;;;8282757;28;20319;-63
2023/05/15 07:16:46;;;;;;;7.32;5.65;;;;;14.50;95752.00;;;;8284131;28;20622;-63
2023/05/15 07:20:49;;;;;;;8.88;5.50;;;;;14.70;95757.00;;;;8289543;28;20206;-65
2023/05/15 07:24:53;;;;;;;6.88;5.88;;;;;15.20;95755.00;;;;8287573;28;20610;-66
2023/05/15 07:29:00;;;;;;;5.82;5.22;;;;;15.80;95748.00;;;;8288218;28;20265;-69
2023/05/15 07:33:03;;;;;;;7.88;5.63;;;;;16.30;95753.00;;;;8290982;28;20248;-66
2023/05/15 07:37:06;;;;;;;7.60;6.13;;;;;17.00;95745.00;;;;8287925;28;20249;-66
2023/05/15 07:41:09;;;;;;;7.30;6.18;;;;;18.00;95747.00;;;;8285525;28;20268;-64
2023/05/15 07:45:16;;;;;;;6.97;5.70;;;;;18.50;95748.00;;;;8283805;28;20198;-65
2023/05/15 07:49:24;;;;;;;6.20;5.47;;;;;19.20;95750.00;;;;8285664;28;20229;-64
2023/05/15 07:53:29;;;;;;;6.45;5.75;;;;;19.50;95757.00;;;;8287254;28;20810;-64
2023/05/15 07:57:32;;;;;;;5.80;5.20;;;;;19.70;95756.00;;;;8285284;28;20198;-65
2023/05/15 08:01:38;;;;;;;6.38;5.18;;;;;20.10;95749.00;;;;8286259;28;20668;-63
2023/05/15 08:05:42;;;;;;;5.93;5.25;;;;;20.10;95755.00;;;;8282791;28;20202;-65
2023/05/15 08:09:46;;;;;;;6.70;5.30;;;;;20.30;95751.00;;;;8286944;28;21818;-64
2023/05/15 08:13:49;;;;;;;8.25;4.90;;;;;21.20;95755.00;;;;8286541;28;20660;-65
2023/05/15 08:17:57;;;;;;;5.40;4.47;;;;;21.60;95752.00;;;;8283680;28;20591;-65
2023/05/15 08:22:04;;;;;;;5.10;4.60;;;;;21.20;95762.00;;;;8277261;28;20195;-64
2023/05/15 08:26:10;;;;;;;5.03;4.63;;;;;21.10;95756.00;;;;8280102;28;20268;-65
2023/05/15 08:30:14;;;;;;;7.28;5.00;;;;;20.60;95761.00;;;;8283498;28;20276;-65
2023/05/15 08:34:23;;;;;;;7.35;4.50;;;;;20.30;95764.00;;;;8279856;28;20211;-65
2023/05/15 08:38:26;;;;;;;5.25;4.75;;;;;20.00;95759.00;;;;8277614;28;20199;-65
2023/05/15 08:42:35;;;;;;;8.30;5.22;;;;;19.70;95774.00;;;;8281525;28;20261;-66
2023/05/15 08:46:38;;;;;;;8.35;5.40;;;;;19.40;95767.00;;;;8285911;28;20681;-64
2023/05/15 08:50:51;;;;;;;6.70;5.28;;;;;19.40;95764.00;;;;8280098;28;20233;-66
2023/05/15 08:54:56;;;;;;;5.35;4.57;;;;;19.90;95764.00;;;;8280630;28;20206;-65
2023/05/15 08:58:59;;;;;;;5.47;4.97;;;;;20.10;95766.00;;;;8278133;28;20599;-67
2023/05/15 09:03:03;;;;;;;5.07;4.57;;;;;21.20;95756.00;;;;8273886;28;20256;-67
2023/05/15 09:07:10;;;;;;;6.47;5.00;;;;;21.80;95748.00;;;;8280362;28;20197;-68
2023/05/15 09:11:15;;;;;;;5.72;5.22;;;;;21.70;95751.00;;;;8281203;28;20863;-66
2023/05/15 09:15:23;;;;;;;6.07;5.43;;;;;22.30;95747.00;;;;8272465;28;20195;-69
2023/05/15 09:19:28;;;;;;;5.43;4.93;;;;;22.90;95743.00;;;;8271159;28;20290;-70
2023/05/15 09:23:40;;;;;;;5.57;5.00;;;;;23.60;95743.00;;;;8269507;28;20206;-69
2023/05/15 09:27:45;;;;;;;5.60;4.95;;;;;23.70;95752.00;;;;8266792;28;20260;-65
2023/05/15 09:31:51;;;;;;;4.88;4.45;;;;;24.30;95747.00;;;;8270086;28;20202;-68
2023/05/15 09:35:59;;;;;;;5.18;4.68;;;;;25.40;95749.00;;;;8268677;28;20225;-69
2023/05/15 09:40:12;;;;;;;4.85;4.40;;;;;25.40;95739.00;;;;8268617;28;20195;-71
2023/05/15 09:44:20;;;;;;;4.88;4.05;;;;;24.50;95737.00;;;;8268896;28;20286;-69
2023/05/15 09:48:24;;;;;;;5.03;4.60;;;;;23.80;95737.00;;;;8277930;28;20237;-69
2023/05/15 09:52:30;;;;;;;5.15;4.30;;;;;22.80;95735.00;;;;8280340;28;20233;-69
2023/05/15 09:56:38;;;;;;;4.57;4.18;;;;;23.10;95736.00;;;;8279320;28;20198;-69
2023/05/15 10:00:43;;;;;;;5.40;4.22;;;;;24.20;95733.00;;;;8280734;28;20229;-70
2023/05/15 10:04:55;;;;;;;4.82;3.70;;;;;25.50;95717.00;;;;8284878;28;20308;-69
2023/05/15 10:08:59;;;;;;;4.38;3.97;;;;;26.40;95715.00;;;;8279195;28;20320;-70
2023/05/15 10:13:04;;;;;;;3.50;3.30;;;;;26.30;95707.00;;;;8275439;28;20248;-70
2023/05/15 10:17:09;;;;;;;3.47;3.28;;;;;26.70;95705.00;;;;8281112;28;20618;-69
2023/05/15 10:21:17;;;;;;;3.55;3.25;;;;;27.10;95702.00;;;;8283680;28;20198;-68
2023/05/15 10:25:27;;;;;;;4.43;3.83;;;;;27.10;95705.00;;;;8283966;28;20229;-69
2023/05/15 10:29:32;;;;;;;3.72;3.42;;;;;27.80;95702.00;;;;8279170;28;20233;-70
2023/05/15 10:33:36;;;;;;;3.47;3.17;;;;;27.80;95703.00;;;;8284741;28;20566;-68
2023/05/15 10:37:40;;;;;;;3.97;3.60;;;;;27.70;95711.00;;;;8267287;28;20355;-71
2023/05/15 10:41:45;;;;;;;3.72;3.10;;;;;27.10;95705.00;;;;8270912;28;20195;-71
2023/05/15 10:45:52;;;;;;;3.50;3.20;;;;;27.00;95696.00;;;;8272146;28;20484;-69
2023/05/15 10:49:55;;;;;;;3.80;3.50;;;;;27.60;95695.00;;;;8273124;28;20935;-70
2023/05/15 10:54:02;;;;;;;6.97;3.80;;;;;28.50;95688.00;;;;8271833;28;20217;-67
2023/05/15 10:58:09;;;;;;;3.80;3.40;;;;;29.30;95688.00;;;;8262838;28;20795;-70
2023/05/15 11:02:22;;;;;;;5.10;3.47;;;;;29.30;95684.00;;;;8262952;28;20275;-69
2023/05/15 11:06:31;;;;;;;4.53;3.33;;;;;29.40;95677.00;;;;8263109;28;20202;-69
2023/05/15 11:10:39;;;;;;;3.92;3.53;;;;;29.20;95665.00;;;;8267548;28;20236;-70
2023/05/15 11:15:04;;;;;;;4.18;3.58;;;;;28.40;95665.00;;;;8264935;28;20221;-68
2023/05/15 11:19:24;;;;;;;3.40;3.10;;;;;26.70;95677.00;;;;8265554;28;20623;-71
2023/05/15 11:23:31;;;;;;;6.28;4.22;;;;;24.00;95685.00;;;;8274734;28;20214;-67
2023/05/15 11:27:39;;;;;;;5.15;4.00;;;;;21.90;95666.00;;;;8275340;28;20719;-67
2023/05/15 11:31:45;;;;;;;6.75;3.88;;;;;21.20;95670.00;;;;8282289;28;20214;-66
2023/05/15 11:36:00;;;;;;;4.05;3.70;;;;;21.90;95664.00;;;;8288226;28;20232;-66
2023/05/15 11:40:05;;;;;;;4.05;3.65;;;;;22.80;95665.00;;;;8283062;28;20210;-66
2023/05/15 11:44:09;;;;;;;6.53;4.20;;;;;24.10;95661.00;;;;8289223;28;20195;-67
2023/05/15 11:48:14;;;;;;;3.45;3.22;;;;;24.90;95663.00;;;;8275501;28;20284;-69
2023/05/15 11:52:19;;;;;;;5.28;3.50;;;;;25.90;95660.00;;;;8286318;28;20198;-69
2023/05/15 11:56:27;;;;;;;7.28;3.92;;;;;26.30;95663.00;;;;8286567;28;20230;-68
2023/05/15 12:00:30;;;;;;;3.80;3.38;;;;;26.80;95655.00;;;;8282900;28;20660;-67
2023/05/15 12:04:37;;;;;;;4.47;4.18;;;;;27.70;95650.00;;;;8283405;28;20225;-69
2023/05/15 12:08:42;;;;;;;4.15;3.53;;;;;27.10;95655.00;;;;8281300;28;20229;-69
2023/05/15 12:12:48;;;;;;;11.18;4.55;;;;;25.40;95667.00;;;;8287284;28;20194;-67
2023/05/15 12:16:52;;;;;;;4.85;4.20;;;;;23.70;95682.00;;;;8282380;28;20194;-69
2023/05/15 12:20:55;;;;;;;4.90;3.30;;;;;22.30;95680.00;;;;8285277;28;20202;-69
2023/05/15 12:25:01;;;;;;;3.95;3.15;;;;;21.40;95659.00;;;;8285661;28;20719;-68
2023/05/15 12:29:05;;;;;;;7.18;3.88;;;;;21.20;95675.00;;;;8284104;28;20729;-65
2023/05/15 12:33:10;;;;;;;4.03;3.40;;;;;20.60;95684.00;;;;8284333;28;20190;-68
2023/05/15 12:37:19;;;;;;;6.20;3.38;;;;;20.10;95693.00;;;;8284474;28;20194;-68
2023/05/15 12:41:31;;;;;;;4.40;4.00;;;;;18.50;95696.00;;;;8281759;28;20216;-64
2023/05/15 12:45:37;;;;;;;6.07;4.32;;;;;17.10;95687.00;;;;8280450;28;20237;-63
2023/05/15 12:49:42;;;;;;;7.00;4.68;;;;;16.70;95679.00;;;;8278730;28;20240;-66
2023/05/15 12:53:47;;;;;;;5.50;4.88;;;;;17.10;95676.00;;;;8279409;28;20253;-68
2023/05/15 12:57:52;;;;;;;5.38;4.70;;;;;17.60;95676.00;;;;8286027;28;20194;-67
2023/05/15 13:01:55;;;;;;;7.30;4.53;;;;;18.00;95672.00;;;;8284743;28;20230;-67
2023/05/15 13:05:59;;;;;;;3.95;3.65;;;;;18.60;95667.00;;;;8276754;28;20641;-64
2023/05/15 13:10:04;;;;;;;4.15;3.55;;;;;19.00;95652.00;;;;8284711;28;20218;-67
2023/05/15 13:14:16;;;;;;;4.93;3.50;;;;;19.40;95656.00;;;;8280243;28;20226;-67
2023/05/15 13:18:19;;;;;;;3.80;3.50;;;;;19.80;95640.00;;;;8283262;28;20208;-66
2023/05/15 13:22:25;;;;;;;7.05;3.42;;;;;20.90;95655.00;;;;8285058;28;20280;-67
2023/05/15 13:26:31;;;;;;;4.93;3.63;;;;;22.20;95656.00;;;;8284789;28;20694;-67
2023/05/15 13:30:40;;;;;;;3.63;3.17;;;;;23.50;95659.00;;;;8284704;28;20226;-67
2023/05/15 13:34:43;;;;;;;3.55;3.25;;;;;24.60;95658.00;;;;8280446;28;20198;-67
2023/05/15 13:38:50;;;;;;;3.92;3.28;;;;;25.30;95650.00;;;;8285439;28;20205;-67
2023/05/15 13:42:53;;;;;;;4.40;3.47;;;;;25.90;95658.00;;;;8284027;28;20217;-66
2023/05/15 13:47:03;;;;;;;3.22;2.92;;;;;26.50;95656.00;;;;8300945;28;20194;-65
2023/05/15 13:51:08;;;;;;;4.88;3.15;;;;;26.80;95647.00;;;;8307353;28;20238;-66
2023/05/15 13:55:15;;;;;;;3.05;2.75;;;;;27.40;95647.00;;;;8307069;28;20583;-65
2023/05/15 13:59:22;;;;;;;3.10;2.90;;;;;27.70;95649.00;;;;8304658;28;20647;-66
2023/05/15 14:03:29;;;;;;;2.75;2.60;;;;;28.40;95649.00;;;;8311613;28;20276;-66
2023/05/15 14:07:32;;;;;;;2.53;2.42;;;;;29.10;95649.00;;;;8314578;28;20690;-67
2023/05/15 14:11:35;;;;;;;2.30;2.20;;;;;29.80;95646.00;;;;8312666;28;20233;-66
2023/05/15 14:15:38;;;;;;;2.50;2.30;;;;;29.70;95653.00;;;;8306224;28;20213;-66
2023/05/15 14:19:43;;;;;;;2.67;2.47;;;;;29.70;95645.00;;;;8307925;28;20201;-66
2023/05/15 14:23:46;;;;;;;2.30;2.20;;;;;30.10;95647.00;;;;8297642;28;20919;-68
2023/05/15 14:27:50;;;;;;;2.17;2.08;;;;;30.30;95655.00;;;;8305820;28;20253;-68
2023/05/15 14:31:53;;;;;;;7.43;3.05;;;;;29.30;95668.00;;;;8299141;28;20234;-66
2023/05/15 14:35:59;;;;;;;3.72;3.20;;;;;27.00;95660.00;;;;8301076;28;20206;-65
2023/05/15 14:40:05;;;;;;;3.38;3.08;;;;;25.30;95666.00;;;;8322944;28;20705;-67
2023/05/15 14:44:08;;;;;;;3.95;3.60;;;;;23.90;95668.00;;;;8299825;28;20325;-72
2023/05/15 14:48:13;;;;;;;4.10;3.70;;;;;22.80;95677.00;;;;8302440;28;20197;-72
2023/05/15 14:52:18;;;;;;;4.80;4.10;;;;;22.20;95679.00;;;;8308305;28;20232;-69
2023/05/15 14:56:24;;;;;;;4.90;4.50;;;;;21.80;95688.00;;;;8304638;28;20201;-72
2023/05/15 15:00:29;;;;;;;5.18;3.90;;;;;21.20;95690.00;;;;8305389;28;20531;-68
2023/05/15 15:04:33;;;;;;;4.28;3.88;;;;;20.70;95706.00;;;;8306647;28;20340;-71
2023/05/15 15:08:38;;;;;;;4.95;4.30;;;;;19.80;95708.00;;;;8310595;28;20692;-70
2023/05/15 15:12:45;;;;;;;5.80;5.00;;;;;18.90;95717.00;;;;8305200;28;20583;-69
2023/05/15 15:16:49;;;;;;;6.28;5.15;;;;;18.50;95722.00;;;;8312126;28;20281;-70
2023/05/15 15:20:52;;;;;;;5.32;4.63;;;;;18.50;95726.00;;;;8308287;28;20241;-67
2023/05/15 15:24:58;;;;;;;4.63;4.18;;;;;18.80;95718.00;;;;8304714;28;20198;-68
2023/05/15 15:29:03;;;;;;;4.75;4.35;;;;;19.40;95718.00;;;;8295768;28;20225;-69
2023/05/15 15:33:10;;;;;;;4.30;3.90;;;;;19.70;95717.00;;;;8297388;28;20279;-67
2023/05/15 15:37:16;;;;;;;4.25;3.88;;;;;20.30;95705.00;;;;8310853;28;20264;-70
2023/05/15 15:41:22;;;;;;;4.28;3.88;;;;;21.30;95697.00;;;;8312436;28;20197;-68
2023/05/15 15:45:27;;;;;;;4.30;3.92;;;;;22.50;95699.00;;;;8306854;28;21484;-68
2023/05/15 15:49:31;;;;;;;3.90;3.60;;;;;23.40;95698.00;;;;8308670;28;20236;-67
2023/05/15 15:53:42;;;;;;;4.13;3.80;;;;;24.10;95698.00;;;;8311449;28;20201;-69
2023/05/15 15:57:58;;;;;;;4.45;4.05;;;;;24.70;95697.00;;;;8304590;28;20229;-67
2023/05/15 16:02:04;;;;;;;4.80;3.67;;;;;25.10;95699.00;;;;8302329;28;20317;-69
2023/05/15 16:06:11;;;;;;;4.22;3.63;;;;;24.90;95710.00;;;;8304861;28;20694;-71
2023/05/15 16:10:16;;;;;;;4.45;3.80;;;;;24.60;95707.00;;;;8311893;28;20281;-73
2023/05/15 16:14:30;;;;;;;5.63;3.72;;;;;23.60;95702.00;;;;8306098;28;20268;-73
2023/05/15 16:18:34;;;;;;;5.72;3.90;;;;;23.00;95704.00;;;;8305746;28;20281;-71
2023/05/15 16:22:40;;;;;;;4.60;3.72;;;;;22.50;95709.00;;;;8312271;28;20202;-71
2023/05/15 16:26:43;;;;;;;4.95;3.70;;;;;22.10;95706.00;;;;8307121;28;20201;-72
2023/05/15 16:30:51;;;;;;;4.25;3.80;;;;;21.70;95700.00;;;;8306234;28;20727;-72
2023/05/15 16:34:55;;;;;;;3.90;3.60;;;;;21.20;95715.00;;;;8309628;28;20251;-69
2023/05/15 16:39:00;;;;;;;3.80;3.42;;;;;20.90;95710.00;;;;8305801;28;20198;-71
2023/05/15 16:43:03;;;;;;;4.47;3.47;;;;;20.60;95727.00;;;;8305185;28;20853;-69
2023/05/15 16:47:10;;;;;;;5.15;3.50;;;;;20.30;95731.00;;;;8302087;28;20194;-72
2023/05/15 16:51:19;;;;;;;4.15;3.85;;;;;20.00;95742.00;;;;8301500;28;20226;-71
2023/05/15 16:55:22;;;;;;;4.97;3.78;;;;;19.90;95743.00;;;;8305439;28;20247;-70
2023/05/15 16:59:25;;;;;;;4.63;4.07;;;;;19.60;95736.00;;;;8301997;28;20213;-71
2023/05/15 17:03:33;;;;;;;4.00;3.70;;;;;19.30;95738.00;;;;8302827;28;20233;-71
2023/05/15 17:07:36;;;;;;;4.05;3.45;;;;;19.10;95748.00;;;;8304190;28;20207;-71
2023/05/15 17:11:43;;;;;;;4.40;3.97;;;;;19.60;95750.00;;;;8291867;28;20728;-73
2023/05/15 17:15:50;;;;;;;4.28;3.97;;;;;20.00;95755.00;;;;8305991;28;20209;-72
2023/05/15 17:19:55;;;;;;;3.90;3.60;;;;;19.60;95757.00;;;;8307641;28;20224;-72
2023/05/15 17:23:58;;;;;;;6.20;5.63;;;;;19.10;95763.00;;;;8301736;28;20289;-69
2023/05/15 17:28:01;;;;;;;12.98;8.50;;;;;18.60;95772.00;;;;8295539;28;20244;-68
2023/05/15 17:32:04;;;;;;;20.38;11.40;;;;;18.20;95775.00;;;;8303730;28;20222;-69
2023/05/15 17:36:09;;;;;;;31.75;14.90;;;;;18.00;95781.00;;;;8311949;28;20237;-70
2023/05/15 17:40:12;;;;;;;12.45;7.15;;;;;17.90;95782.00;;;;8313295;28;20255;-71
2023/05/15 17:44:16;;;;;;;29.92;19.92;;;;;17.90;95788.00;;;;8307624;28;20738;-71
2023/05/15 17:48:20;;;;;;;5.03;4.63;;;;;17.70;95782.00;;;;8302080;28;20208;-70
2023/05/15 17:52:26;;;;;;;6.43;4.40;;;;;17.50;95782.00;;;;8296011;28;20230;-71
2023/05/15 17:56:31;;;;;;;4.25;3.67;;;;;17.30;95791.00;;;;8303423;28;20202;-70
2023/05/15 18:00:37;;;;;;;4.38;3.97;;;;;17.20;95800.00;;;;8303743;28;20209;-68
2023/05/15 18:04:40;;;;;;;4.18;3.88;;;;;17.00;95799.00;;;;8301348;28;20225;-71
2023/05/15 18:08:46;;;;;;;4.13;3.80;;;;;17.00;95806.00;;;;8308695;28;20206;-70
2023/05/15 18:12:50;;;;;;;5.00;4.50;;;;;16.90;95802.00;;;;8301678;28;20786;-71
2023/05/15 18:16:59;;;;;;;5.22;3.70;;;;;16.80;95805.00;;;;8310981;28;20244;-70
2023/05/15 18:21:04;;;;;;;5.30;4.43;;;;;16.70;95804.00;;;;8301366;28;20201;-70
2023/05/15 18:25:09;;;;;;;4.30;3.92;;;;;16.60;95805.00;;;;8307712;28;20197;-71
2023/05/15 18:29:22;;;;;;;6.03;4.88;;;;;16.50;95814.00;;;;8309313;28;20982;-69
2023/05/15 18:33:29;;;;;;;4.63;4.18;;;;;16.30;95806.00;;;;8311218;28;20221;-70
2023/05/15 18:37:32;;;;;;;5.13;4.63;;;;;16.20;95815.00;;;;8303877;28;20636;-71
2023/05/15 18:41:41;;;;;;;6.47;4.07;;;;;16.10;95821.00;;;;8312875;28;20209;-69
2023/05/15 18:45:48;;;;;;;5.82;4.38;;;;;16.00;95829.00;;;;8307246;28;20292;-70
2023/05/15 18:49:53;;;;;;;5.00;4.50;;;;;15.90;95839.00;;;;8297425;28;20280;-70
2023/05/15 18:53:57;;;;;;;6.13;5.43;;;;;15.80;95839.00;;;;8298407;28;20354;-70
2023/05/15 18:58:01;;;;;;;6.00;4.88;;;;;15.70;95839.00;;;;8303940;28;20197;-69
2023/05/15 19:02:05;;;;;;;5.60;5.03;;;;;15.60;95844.00;;;;8302804;28;20224;-70
2023/05/15 19:06:12;;;;;;;6.97;5.18;;;;;15.50;95840.00;;;;8301344;28;20193;-70
2023/05/15 19:10:15;;;;;;;4.85;4.45;;;;;15.40;95849.00;;;;8293318;28;20198;-69
2023/05/15 19:14:21;;;;;;;5.15;4.65;;;;;15.30;95847.00;;;;8304477;28;20233;-71
2023/05/15 19:18:28;;;;;;;5.15;4.65;;;;;15.30;95855.00;;;;8316946;28;20205;-70
2023/05/15 19:22:33;;;;;;;8.98;5.47;;;;;15.20;95851.00;;;;8305938;28;20232;-69
2023/05/15 19:26:39;;;;;;;5.90;5.32;;;;;15.10;95852.00;;;;8318119;28;20213;-68
2023/05/15 19:30:47;;;;;;;7.50;5.40;;;;;15.00;95856.00;;;;8314703;28;20209;-69
2023/05/15 19:34:50;;;;;;;8.30;5.82;;;;;15.00;95864.00;;;;8313033;28;20201;-69
2023/05/15 19:38:54;;;;;;;6.70;5.82;;;;;14.90;95874.00;;;;8307929;28;20193;-68
2023/05/15 19:43:00;;;;;;;6.53;5.70;;;;;14.90;95872.00;;;;8309588;28;20275;-68
2023/05/15 19:47:08;;;;;;;6.22;5.63;;;;;15.00;95871.00;;;;8308152;28;20202;-69
2023/05/15 19:51:14;;;;;;;6.35;5.75;;;;;14.90;95873.00;;;;8303765;28;20256;-69
2023/05/15 19:55:19;;;;;;;7.50;5.80;;;;;14.90;95885.00;;;;8308055;28;20212;-68
2023/05/15 19:59:23;;;;;;;7.70;5.80;;;;;14.90;95885.00;;;;8306921;28;20221;-70
2023/05/15 20:03:32;;;;;;;8.25;6.28;;;;;14.90;95881.00;;;;8309411;28;20245;-69
2023/05/15 20:07:35;;;;;;;7.20;5.93;;;;;14.80;95889.00;;;;8309788;28;20197;-68
2023/05/15 20:11:44;;;;;;;10.05;6.55;;;;;14.80;95883.00;;;;8314221;28;20797;-69
2023/05/15 20:15:48;;;;;;;7.97;5.82;;;;;14.70;95880.00;;;;8308245;28;20197;-69
2023/05/15 20:19:55;;;;;;;7.40;5.95;;;;;14.70;95876.00;;;;8306021;28;20252;-69
2023/05/15 20:24:01;;;;;;;8.75;6.72;;;;;14.60;95870.00;;;;8308268;28;20198;-69
2023/05/15 20:28:09;;;;;;;10.18;6.72;;;;;14.40;95876.00;;;;8307264;28;20228;-69